Time;durP1;ratioP1;P1;durP2;ratioP2;P2;SDS_P1;SDS_P2;PMS_P1;PMS_P2;Temp;Humidity;BMP_temperature;BMP_pressure;BME280_temperature;BME280_humidity;BME280_pressure;Samples;Min_cycle;Max_cycle;Signal;HPM_P1;HPM_P2
2022/07/20 00:02:06;;;;;;;2.63;2.42;;;24.70;54.40;;;;;;5032268;28;20168;-53
2022/07/20 00:04:31;;;;;;;2.72;2.53;;;24.70;54.40;;;;;;5032835;28;20211;-52
2022/07/20 00:06:57;;;;;;;3.05;2.63;;;24.70;54.40;;;;;;5032564;28;20685;-55
2022/07/20 00:12:06;;;;;;;2.88;2.67;;;24.70;54.40;;;;;;5032730;28;20269;-55
2022/07/20 00:14:32;;;;;;;3.63;2.60;;;24.70;54.40;;;;;;5033038;28;20176;-53
2022/07/20 00:16:57;;;;;;;2.60;2.40;;;24.70;54.40;;;;;;5031951;28;20764;-54
2022/07/20 00:19:23;;;;;;;2.30;2.17;;;24.70;54.40;;;;;;5032789;28;20183;-55
2022/07/20 00:21:49;;;;;;;2.80;2.60;;;24.60;54.40;;;;;;5032255;28;20249;-55
2022/07/20 00:24:14;;;;;;;3.08;2.30;;;24.60;54.40;;;;;;5032142;28;20215;-55
2022/07/20 00:26:40;;;;;;;3.38;2.80;;;24.70;54.40;;;;;;5032661;28;20182;-54
2022/07/20 00:29:05;;;;;;;2.85;2.65;;;24.60;54.40;;;;;;5032487;28;20183;-55
2022/07/20 00:31:31;;;;;;;2.67;2.47;;;24.60;54.30;;;;;;5032208;28;20647;-56
2022/07/20 00:33:56;;;;;;;2.60;2.50;;;24.60;54.30;;;;;;5032477;28;20243;-55
2022/07/20 00:36:22;;;;;;;2.88;2.53;;;24.70;54.50;;;;;;5032224;28;20633;-54
2022/07/20 00:38:47;;;;;;;2.55;2.35;;;24.70;54.60;;;;;;5032014;28;20179;-55
2022/07/20 00:41:13;;;;;;;2.70;2.42;;;24.70;54.40;;;;;;5034684;28;20171;-55
2022/07/20 00:43:54;;;;;;;3.08;2.85;;;24.60;54.40;;;;;;5036105;28;20290;-54
2022/07/20 00:46:20;;;;;;;2.65;2.50;;;24.60;54.40;;;;;;5036071;28;20186;-54
2022/07/20 00:48:45;;;;;;;3.17;2.88;;;24.70;54.40;;;;;;5036215;28;20180;-49
2022/07/20 00:51:11;;;;;;;2.72;2.53;;;24.60;54.40;;;;;;5035579;28;20190;-55
2022/07/20 00:53:37;;;;;;;2.55;2.35;;;24.60;54.40;;;;;;5036458;28;20206;-51
2022/07/20 00:56:02;;;;;;;2.80;2.60;;;24.60;54.40;;;;;;5036041;28;20230;-54
2022/07/20 00:58:28;;;;;;;3.83;2.40;;;24.60;54.40;;;;;;5035583;28;20176;-51
2022/07/20 01:00:53;;;;;;;3.42;2.40;;;24.60;54.40;;;;;;5035946;28;20190;-51
2022/07/20 01:03:19;;;;;;;2.50;2.40;;;24.60;54.40;;;;;;5035951;28;20275;-54
2022/07/20 01:05:44;;;;;;;2.70;2.50;;;24.60;54.40;;;;;;5035119;28;20183;-52
2022/07/20 01:08:10;;;;;;;3.00;2.80;;;24.60;54.40;;;;;;5018489;28;20175;-56
2022/07/20 01:10:35;;;;;;;2.30;2.20;;;24.60;54.40;;;;;;5018201;28;20176;-57
2022/07/20 01:13:01;;;;;;;2.42;2.22;;;24.60;54.40;;;;;;5017298;28;20785;-52
2022/07/20 01:15:26;;;;;;;2.70;2.50;;;24.60;54.40;;;;;;5035873;28;20642;-53
2022/07/20 01:17:52;;;;;;;3.20;2.97;;;24.60;54.40;;;;;;5035361;28;20218;-56
2022/07/20 01:20:18;;;;;;;2.72;2.53;;;24.60;54.30;;;;;;5035114;28;20271;-56
2022/07/20 01:22:44;;;;;;;2.83;2.63;;;24.60;54.40;;;;;;5035789;28;20180;-54
2022/07/20 01:25:09;;;;;;;3.20;2.90;;;24.60;54.40;;;;;;5035396;28;20247;-56
2022/07/20 01:27:35;;;;;;;2.78;2.58;;;24.60;54.40;;;;;;5035385;28;20226;-55
2022/07/20 01:30:01;;;;;;;3.53;3.08;;;24.60;54.40;;;;;;5035329;28;20298;-53
2022/07/20 01:32:26;;;;;;;2.67;2.35;;;24.60;54.40;;;;;;5035361;28;20203;-55
2022/07/20 01:34:52;;;;;;;3.53;2.75;;;24.60;54.40;;;;;;5034864;28;20638;-54
2022/07/20 01:37:17;;;;;;;3.22;2.58;;;24.60;54.40;;;;;;5035372;28;20183;-56
2022/07/20 01:39:43;;;;;;;3.25;2.95;;;24.60;54.40;;;;;;5035200;28;20175;-57
2022/07/20 01:42:08;;;;;;;3.20;2.90;;;24.60;54.40;;;;;;5034998;28;20174;-56
2022/07/20 01:44:34;;;;;;;2.92;2.72;;;24.60;54.40;;;;;;5035313;28;20214;-54
2022/07/20 01:46:59;;;;;;;3.65;2.80;;;24.60;54.40;;;;;;5034908;28;20164;-53
2022/07/20 01:49:27;;;;;;;2.65;2.38;;;24.60;54.40;;;;;;5034750;28;20168;-52
2022/07/20 01:51:53;;;;;;;3.30;3.10;;;24.60;54.40;;;;;;5034611;28;20168;-55
2022/07/20 01:54:18;;;;;;;3.30;3.00;;;24.60;54.40;;;;;;5034369;28;20180;-52
2022/07/20 01:56:44;;;;;;;3.13;2.80;;;24.60;54.40;;;;;;5035011;28;20262;-54
2022/07/20 01:59:09;;;;;;;3.25;2.70;;;24.60;54.40;;;;;;5035124;28;20188;-50
2022/07/20 02:01:35;;;;;;;3.22;2.88;;;24.60;54.40;;;;;;5034360;28;20183;-54
2022/07/20 02:04:01;;;;;;;2.60;2.40;;;24.60;54.40;;;;;;5034583;28;20303;-53
2022/07/20 02:06:26;;;;;;;2.90;2.70;;;24.60;54.40;;;;;;5034884;28;20192;-56
2022/07/20 02:08:52;;;;;;;3.20;2.90;;;24.60;54.40;;;;;;5034124;28;20179;-56
2022/07/20 02:11:18;;;;;;;2.97;2.78;;;24.60;54.40;;;;;;5034664;28;20218;-52
2022/07/20 02:13:43;;;;;;;3.10;2.90;;;24.60;54.40;;;;;;5034692;28;20171;-56
2022/07/20 02:16:14;;;;;;;3.30;3.00;;;24.60;54.40;;;;;;5034002;28;20578;-53
2022/07/20 02:18:40;;;;;;;3.85;2.85;;;24.50;54.40;;;;;;5034483;28;20237;-54
2022/07/20 02:21:06;;;;;;;3.28;2.90;;;24.60;54.40;;;;;;5034291;28;20180;-54
2022/07/20 02:23:32;;;;;;;3.30;2.97;;;24.60;54.40;;;;;;5034181;28;20196;-53
2022/07/20 02:25:57;;;;;;;3.38;2.70;;;24.60;54.40;;;;;;5034472;28;20250;-53
2022/07/20 02:28:23;;;;;;;3.08;2.72;;;24.60;54.40;;;;;;5034243;28;20679;-52
2022/07/20 02:30:48;;;;;;;3.33;3.03;;;24.60;54.40;;;;;;5033756;28;20642;-53
2022/07/20 02:33:14;;;;;;;3.10;2.90;;;24.60;54.40;;;;;;5034633;28;20176;-53
2022/07/20 02:35:39;;;;;;;3.05;2.85;;;24.60;54.40;;;;;;5034125;28;20567;-54
2022/07/20 02:38:05;;;;;;;3.25;2.95;;;24.60;54.40;;;;;;5033707;28;20634;-53
2022/07/20 02:40:30;;;;;;;3.88;3.33;;;24.60;54.40;;;;;;5034309;28;20176;-56
2022/07/20 02:42:56;;;;;;;3.33;2.95;;;24.60;54.40;;;;;;5033862;28;20222;-54
2022/07/20 02:45:22;;;;;;;2.92;2.72;;;24.60;54.50;;;;;;5033542;28;20265;-55
2022/07/20 02:47:47;;;;;;;3.28;2.88;;;24.50;54.40;;;;;;5033896;28;20175;-55
2022/07/20 02:50:13;;;;;;;3.42;3.13;;;24.60;54.40;;;;;;5033927;28;20206;-55
2022/07/20 02:52:39;;;;;;;3.40;3.10;;;24.50;54.40;;;;;;5033548;28;20172;-56
2022/07/20 02:55:05;;;;;;;3.75;3.05;;;24.50;54.40;;;;;;5033976;28;20203;-55
2022/07/20 02:57:31;;;;;;;3.13;2.80;;;24.50;54.40;;;;;;5033773;28;20172;-56
2022/07/20 02:59:56;;;;;;;3.55;3.17;;;24.50;54.40;;;;;;5033269;28;20183;-52
2022/07/20 03:02:22;;;;;;;3.65;3.08;;;24.50;54.40;;;;;;5033796;28;20172;-55
2022/07/20 03:04:47;;;;;;;4.05;2.95;;;24.50;54.40;;;;;;5031923;28;20234;-53
2022/07/20 03:07:13;;;;;;;3.65;3.35;;;24.50;54.40;;;;;;5033595;28;20626;-53
2022/07/20 03:09:38;;;;;;;3.05;2.72;;;24.50;54.40;;;;;;5033735;28;20182;-54
2022/07/20 03:12:04;;;;;;;3.00;2.80;;;24.50;54.40;;;;;;5032829;28;20235;-54
2022/07/20 03:14:29;;;;;;;3.33;3.03;;;24.60;54.50;;;;;;5033527;28;20175;-53
2022/07/20 03:16:55;;;;;;;3.22;2.88;;;24.50;54.40;;;;;;5033392;28;20175;-56
2022/07/20 03:19:21;;;;;;;3.47;3.13;;;24.50;54.40;;;;;;5033356;28;20171;-55
2022/07/20 03:21:47;;;;;;;3.50;3.17;;;24.50;54.40;;;;;;5033524;28;20179;-55
2022/07/20 03:24:12;;;;;;;3.28;2.97;;;24.50;54.40;;;;;;5033418;28;20208;-55
2022/07/20 03:26:38;;;;;;;3.85;3.13;;;24.50;54.40;;;;;;5032943;28;20198;-53
2022/07/20 03:29:03;;;;;;;3.22;3.00;;;24.50;54.40;;;;;;5033210;28;20221;-53
2022/07/20 03:31:29;;;;;;;3.72;3.17;;;24.50;54.40;;;;;;5033101;28;20206;-51
2022/07/20 03:33:54;;;;;;;3.35;2.97;;;24.50;54.40;;;;;;5032571;28;20540;-55
2022/07/20 03:36:20;;;;;;;2.92;2.72;;;24.50;54.40;;;;;;5033153;28;20622;-54
2022/07/20 03:38:45;;;;;;;3.67;3.38;;;24.50;54.40;;;;;;5032915;28;20194;-56
2022/07/20 03:41:11;;;;;;;3.50;3.20;;;24.50;54.40;;;;;;5032712;28;20186;-54
2022/07/20 03:43:36;;;;;;;3.35;3.05;;;24.50;54.40;;;;;;5033162;28;20234;-57
2022/07/20 03:46:02;;;;;;;3.72;3.35;;;24.50;54.40;;;;;;5032549;28;20210;-56
2022/07/20 03:48:27;;;;;;;3.00;2.80;;;24.50;54.40;;;;;;5032815;28;20168;-54
2022/07/20 03:50:53;;;;;;;3.50;3.20;;;24.50;54.40;;;;;;5032919;28;20176;-56
2022/07/20 03:53:19;;;;;;;3.50;3.20;;;24.50;54.40;;;;;;5032847;28;20172;-55
2022/07/20 03:55:44;;;;;;;4.13;3.13;;;24.50;54.40;;;;;;5032579;28;20262;-56
2022/07/20 03:58:10;;;;;;;3.50;2.80;;;24.50;54.40;;;;;;5032951;28;20222;-52
2022/07/20 04:00:35;;;;;;;3.58;3.28;;;24.50;54.40;;;;;;5032634;28;20175;-55
2022/07/20 04:03:01;;;;;;;3.10;2.90;;;24.50;54.40;;;;;;5032126;28;20602;-55
2022/07/20 04:05:26;;;;;;;3.80;3.50;;;24.50;54.40;;;;;;5032968;28;20688;-55
2022/07/20 04:07:52;;;;;;;3.50;3.20;;;24.50;54.40;;;;;;5032388;28;20172;-55
2022/07/20 04:10:17;;;;;;;3.80;3.50;;;24.50;54.40;;;;;;5032582;28;20188;-55
2022/07/20 04:12:43;;;;;;;3.00;2.80;;;24.50;54.40;;;;;;5032348;28;20236;-57
2022/07/20 04:15:09;;;;;;;3.47;3.22;;;24.50;54.40;;;;;;5031544;28;20176;-55
2022/07/20 04:17:34;;;;;;;4.03;3.33;;;24.50;54.40;;;;;;5032880;28;20179;-56
2022/07/20 04:20:00;;;;;;;3.63;3.33;;;24.50;54.40;;;;;;5032648;28;20221;-53
2022/07/20 04:22:25;;;;;;;3.22;3.00;;;24.50;54.40;;;;;;5032077;28;20176;-55
2022/07/20 04:24:51;;;;;;;4.35;3.28;;;24.50;54.40;;;;;;5032447;28;20297;-55
2022/07/20 04:27:17;;;;;;;2.97;2.75;;;24.50;54.40;;;;;;5032252;28;20317;-54
2022/07/20 04:29:42;;;;;;;3.35;3.15;;;24.50;54.40;;;;;;5032032;28;20579;-52
2022/07/20 04:32:08;;;;;;;3.50;3.13;;;24.50;54.40;;;;;;5032389;28;20176;-52
2022/07/20 04:34:33;;;;;;;3.50;3.20;;;24.40;54.40;;;;;;5032520;28;20186;-55
2022/07/20 04:36:59;;;;;;;4.00;3.65;;;24.50;54.40;;;;;;5031729;28;20587;-54
2022/07/20 04:39:24;;;;;;;3.58;3.28;;;24.50;54.40;;;;;;5032674;28;20180;-56
2022/07/20 04:41:50;;;;;;;3.33;3.13;;;24.50;54.40;;;;;;5032104;28;20202;-54
2022/07/20 04:44:15;;;;;;;3.95;3.33;;;24.50;54.40;;;;;;5031683;28;20215;-54
2022/07/20 04:46:41;;;;;;;3.42;3.13;;;24.50;54.40;;;;;;5032425;28;20179;-54
2022/07/20 04:49:07;;;;;;;3.40;3.17;;;24.50;54.40;;;;;;5032056;28;20680;-50
2022/07/20 04:51:33;;;;;;;3.88;3.42;;;24.50;54.40;;;;;;5031897;28;20203;-51
2022/07/20 04:53:59;;;;;;;3.95;3.55;;;24.50;54.40;;;;;;5032240;28;20215;-54
2022/07/20 04:56:24;;;;;;;3.60;3.30;;;24.50;55.00;;;;;;5032173;28;20183;-56
2022/07/20 04:58:52;;;;;;;3.58;3.33;;;24.50;54.40;;;;;;5031539;28;20183;-55
2022/07/20 05:01:19;;;;;;;3.53;3.22;;;24.50;54.40;;;;;;5032434;28;20176;-52
2022/07/20 05:03:44;;;;;;;3.65;3.40;;;24.50;54.40;;;;;;5031876;28;20199;-56
2022/07/20 05:06:10;;;;;;;3.83;3.53;;;24.50;55.00;;;;;;5031833;28;20183;-54
2022/07/20 05:08:35;;;;;;;3.58;3.28;;;24.50;54.30;;;;;;5032303;28;20203;-58
2022/07/20 05:11:01;;;;;;;3.58;3.28;;;24.50;54.30;;;;;;5031627;28;20686;-56
2022/07/20 05:13:26;;;;;;;3.45;3.15;;;24.50;54.30;;;;;;5031619;28;20176;-54
2022/07/20 05:15:52;;;;;;;3.55;3.25;;;24.50;54.30;;;;;;5031941;28;20509;-57
2022/07/20 05:18:17;;;;;;;3.70;3.45;;;24.50;54.30;;;;;;5031335;28;20649;-56
2022/07/20 05:20:43;;;;;;;3.63;3.33;;;24.50;54.30;;;;;;5032067;28;20171;-57
2022/07/20 05:23:08;;;;;;;3.72;3.42;;;24.50;54.40;;;;;;5032048;28;20172;-56
2022/07/20 05:25:38;;;;;;;3.90;3.60;;;24.50;54.30;;;;;;5031509;28;20215;-56
2022/07/20 05:28:04;;;;;;;4.38;4.00;;;24.60;54.30;;;;;;5033662;28;20855;-51
2022/07/20 05:30:29;;;;;;;4.18;3.85;;;24.60;54.30;;;;;;5035342;28;20229;-51
2022/07/20 05:32:55;;;;;;;3.78;3.47;;;24.50;54.30;;;;;;5035024;28;20221;-55
2022/07/20 05:35:20;;;;;;;4.15;3.75;;;24.60;54.40;;;;;;5035509;28;20218;-56
2022/07/20 05:37:46;;;;;;;4.82;4.10;;;24.60;54.40;;;;;;5034949;28;20171;-55
2022/07/20 05:40:13;;;;;;;4.40;4.10;;;24.60;54.40;;;;;;5034814;28;20183;-57
2022/07/20 05:42:38;;;;;;;4.50;4.10;;;24.60;54.40;;;;;;5035174;28;20180;-57
2022/07/20 05:45:04;;;;;;;4.60;4.20;;;24.60;54.40;;;;;;5035153;28;20242;-55
2022/07/20 05:47:30;;;;;;;4.97;4.47;;;24.60;54.40;;;;;;5034887;28;20172;-55
2022/07/20 05:49:57;;;;;;;4.65;4.25;;;24.60;54.40;;;;;;5035094;28;20180;-54
2022/07/20 05:52:22;;;;;;;4.65;4.25;;;24.60;54.40;;;;;;5034799;28;20626;-53
2022/07/20 05:54:48;;;;;;;5.00;4.60;;;24.60;54.40;;;;;;5034429;28;20343;-53
2022/07/20 05:57:13;;;;;;;5.53;5.03;;;24.60;54.40;;;;;;5034880;28;20254;-54
2022/07/20 05:59:39;;;;;;;5.45;4.95;;;24.60;54.50;;;;;;5034631;28;20366;-56
2022/07/20 06:02:05;;;;;;;5.85;5.38;;;24.60;54.50;;;;;;5034590;28;20187;-51
2022/07/20 06:04:30;;;;;;;4.95;4.60;;;24.60;54.50;;;;;;5035014;28;20243;-56
2022/07/20 06:06:56;;;;;;;5.35;4.88;;;24.60;54.50;;;;;;5034610;28;20175;-56
2022/07/20 06:09:21;;;;;;;4.93;4.53;;;24.60;54.50;;;;;;5034296;28;20176;-56
2022/07/20 06:11:47;;;;;;;5.57;5.07;;;24.60;54.50;;;;;;5034289;28;20220;-55
2022/07/20 06:14:12;;;;;;;5.75;4.93;;;24.60;54.50;;;;;;5034664;28;20183;-53
2022/07/20 06:16:38;;;;;;;5.40;4.90;;;24.60;54.50;;;;;;5034042;28;20539;-57
2022/07/20 06:19:03;;;;;;;6.25;5.75;;;24.60;54.50;;;;;;5034574;28;20623;-52
2022/07/20 06:21:29;;;;;;;6.10;5.60;;;24.60;54.50;;;;;;5034521;28;20172;-53
2022/07/20 06:23:54;;;;;;;5.85;5.35;;;24.60;54.50;;;;;;5033912;28;20610;-55
2022/07/20 06:26:21;;;;;;;6.47;5.93;;;24.60;54.60;;;;;;5034258;28;20610;-55
2022/07/20 06:28:47;;;;;;;6.30;5.70;;;24.60;54.70;;;;;;5033924;28;20180;-55
2022/07/20 06:31:12;;;;;;;7.03;6.43;;;24.60;55.10;;;;;;5034463;28;20221;-51
2022/07/20 06:33:38;;;;;;;6.40;5.90;;;24.60;55.30;;;;;;5034134;28;20238;-55
2022/07/20 06:36:04;;;;;;;6.93;6.22;;;24.70;55.40;;;;;;5033717;28;20535;-54
2022/07/20 06:38:29;;;;;;;7.10;6.45;;;24.60;55.70;;;;;;5034338;28;20188;-56
2022/07/20 06:40:55;;;;;;;7.25;6.55;;;24.60;55.50;;;;;;5033853;28;20175;-55
2022/07/20 06:43:23;;;;;;;8.63;7.63;;;24.70;55.40;;;;;;5033569;28;20183;-54
2022/07/20 06:45:49;;;;;;;11.05;7.88;;;24.60;55.40;;;;;;5033934;28;20211;-53
2022/07/20 06:48:15;;;;;;;10.20;8.48;;;24.70;55.90;;;;;;5033630;28;20622;-56
2022/07/20 06:50:41;;;;;;;7.80;7.00;;;24.70;55.90;;;;;;5033416;28;20229;-54
2022/07/20 06:53:06;;;;;;;7.00;6.35;;;24.70;55.40;;;;;;5034158;28;20172;-53
2022/07/20 06:55:32;;;;;;;7.82;7.13;;;24.70;55.30;;;;;;5033692;28;20175;-57
2022/07/20 06:57:58;;;;;;;8.10;7.40;;;24.70;55.40;;;;;;5033343;28;20184;-55
2022/07/20 07:00:23;;;;;;;9.73;8.02;;;24.70;55.40;;;;;;5033263;28;20176;-54
2022/07/20 07:02:49;;;;;;;9.55;7.53;;;24.70;55.30;;;;;;5032134;28;20190;-54
2022/07/20 07:05:14;;;;;;;8.80;7.88;;;24.70;55.30;;;;;;5032886;28;20247;-53
2022/07/20 07:07:40;;;;;;;9.50;8.50;;;24.80;55.30;;;;;;5033446;28;20210;-52
2022/07/20 07:10:06;;;;;;;8.93;8.02;;;24.80;55.40;;;;;;5033331;28;20184;-55
2022/07/20 07:12:31;;;;;;;9.65;8.65;;;24.80;55.70;;;;;;5033191;28;20223;-55
2022/07/20 07:14:56;;;;;;;11.20;8.55;;;24.80;55.70;;;;;;5033462;28;20602;-52
2022/07/20 07:17:22;;;;;;;9.43;8.50;;;24.80;55.70;;;;;;5033235;28;20164;-56
2022/07/20 07:19:47;;;;;;;10.85;9.63;;;24.90;55.80;;;;;;5032854;28;20176;-56
2022/07/20 07:22:13;;;;;;;11.60;10.00;;;24.80;55.80;;;;;;5033624;28;20176;-54
2022/07/20 07:24:38;;;;;;;10.35;9.43;;;24.90;55.90;;;;;;5032998;28;20214;-54
2022/07/20 07:27:04;;;;;;;9.90;8.93;;;24.90;55.90;;;;;;5033002;28;20226;-51
2022/07/20 07:29:30;;;;;;;11.23;10.13;;;24.90;55.90;;;;;;5033393;28;20246;-56
2022/07/20 07:32:01;;;;;;;11.88;10.77;;;24.90;56.00;;;;;;5032542;28;20183;-55
2022/07/20 07:34:27;;;;;;;10.73;9.73;;;24.90;56.00;;;;;;5033400;28;20176;-55
2022/07/20 07:36:52;;;;;;;11.40;10.25;;;24.90;55.90;;;;;;5032868;28;20630;-56
2022/07/20 07:39:18;;;;;;;11.38;10.27;;;24.90;55.90;;;;;;5032800;28;20175;-54
2022/07/20 07:41:43;;;;;;;11.70;10.50;;;25.00;55.80;;;;;;5032986;28;20636;-54
2022/07/20 07:44:09;;;;;;;10.95;9.85;;;24.90;55.80;;;;;;5032678;28;20203;-55
2022/07/20 07:46:35;;;;;;;12.00;10.75;;;24.90;55.80;;;;;;5032574;28;20186;-54
2022/07/20 07:49:00;;;;;;;12.70;11.35;;;25.00;55.80;;;;;;5032894;28;20610;-54
2022/07/20 07:51:26;;;;;;;11.82;10.63;;;24.90;55.70;;;;;;5032349;28;20183;-52
2022/07/20 07:53:51;;;;;;;12.77;11.43;;;25.00;55.70;;;;;;5032293;28;20545;-54
2022/07/20 07:56:17;;;;;;;13.77;11.40;;;25.00;55.70;;;;;;5033169;28;20287;-56
2022/07/20 07:58:42;;;;;;;13.00;11.70;;;25.00;55.70;;;;;;5032655;28;20594;-55
2022/07/20 08:01:08;;;;;;;12.43;11.20;;;25.00;55.60;;;;;;5032536;28;20670;-54
2022/07/20 08:03:33;;;;;;;12.27;11.07;;;25.00;55.60;;;;;;5032988;28;20210;-57
2022/07/20 08:06:00;;;;;;;12.15;10.95;;;25.00;55.60;;;;;;5032465;28;20179;-56
2022/07/20 08:08:25;;;;;;;12.32;11.07;;;25.00;55.60;;;;;;5032351;28;20262;-59
2022/07/20 08:10:51;;;;;;;13.23;11.55;;;25.00;55.50;;;;;;5032401;28;20251;-56
2022/07/20 08:13:16;;;;;;;13.45;11.80;;;25.00;55.50;;;;;;5032478;28;20275;-55
2022/07/20 08:15:42;;;;;;;12.90;11.70;;;25.00;55.60;;;;;;5032123;28;20705;-55
2022/07/20 08:18:07;;;;;;;13.50;12.00;;;25.00;55.60;;;;;;5032764;28;20182;-59
2022/07/20 08:20:33;;;;;;;13.88;12.40;;;25.00;55.70;;;;;;5032671;28;20178;-56
2022/07/20 08:22:58;;;;;;;13.95;12.63;;;25.00;55.70;;;;;;5031871;28;20186;-55
2022/07/20 08:25:24;;;;;;;13.73;12.30;;;25.00;55.70;;;;;;5032475;28;20669;-52
2022/07/20 08:27:50;;;;;;;14.02;12.73;;;25.00;55.70;;;;;;5032486;28;20250;-56
2022/07/20 08:30:15;;;;;;;13.48;12.23;;;25.00;55.70;;;;;;5032144;28;20175;-55
2022/07/20 08:32:41;;;;;;;12.88;11.68;;;25.00;55.70;;;;;;5032352;28;20648;-53
2022/07/20 08:35:07;;;;;;;14.25;12.82;;;25.00;55.70;;;;;;5032509;28;20178;-56
2022/07/20 08:37:32;;;;;;;13.60;12.18;;;25.00;55.50;;;;;;5032165;28;20172;-56
2022/07/20 08:39:58;;;;;;;14.50;12.50;;;25.10;55.60;;;;;;5032217;28;20187;-59
2022/07/20 08:42:24;;;;;;;14.88;13.38;;;25.10;55.50;;;;;;5032060;28;20167;-55
2022/07/20 08:44:49;;;;;;;13.10;11.90;;;25.10;55.70;;;;;;5014456;28;20215;-55
2022/07/20 08:47:15;;;;;;;13.77;12.48;;;25.00;55.70;;;;;;5032216;28;20180;-55
2022/07/20 08:49:46;;;;;;;16.48;13.25;;;25.10;55.90;;;;;;5031752;28;20226;-54
2022/07/20 08:52:12;;;;;;;14.18;12.73;;;25.10;56.10;;;;;;5032249;28;20515;-53
2022/07/20 08:54:38;;;;;;;12.63;11.45;;;25.10;56.10;;;;;;5032199;28;20653;-51
2022/07/20 08:57:10;;;;;;;13.32;12.02;;;25.10;56.10;;;;;;5031924;28;20661;-52
2022/07/20 08:59:35;;;;;;;12.82;11.50;;;25.10;56.20;;;;;;5032500;28;20183;-54
2022/07/20 09:02:03;;;;;;;13.55;11.95;;;25.00;56.30;;;;;;5032054;28;20174;-52
2022/07/20 09:04:28;;;;;;;15.30;12.23;;;25.10;56.20;;;;;;5035547;28;20223;-56
2022/07/20 09:06:54;;;;;;;14.68;12.48;;;25.10;56.20;;;;;;5035372;28;20180;-57
2022/07/20 09:09:20;;;;;;;13.55;12.25;;;25.10;56.20;;;;;;5035600;28;20219;-55
2022/07/20 09:11:45;;;;;;;13.45;12.07;;;25.10;56.20;;;;;;5034493;28;20294;-57
2022/07/20 09:14:11;;;;;;;13.23;11.85;;;25.10;56.10;;;;;;5025122;28;20291;-53
2022/07/20 09:16:47;;;;;;;13.88;12.50;;;25.00;56.00;;;;;;5035727;28;20179;-53
2022/07/20 09:19:16;;;;;;;13.88;12.20;;;25.00;56.00;;;;;;5035134;28;20207;-56
2022/07/20 09:21:42;;;;;;;13.05;11.77;;;25.10;56.10;;;;;;5035485;28;20539;-54
2022/07/20 09:24:08;;;;;;;12.93;11.48;;;25.10;56.10;;;;;;5035384;28;20192;-56
2022/07/20 09:26:34;;;;;;;13.38;12.07;;;25.00;56.00;;;;;;5035260;28;20219;-53
2022/07/20 09:29:03;;;;;;;13.95;12.65;;;25.10;55.90;;;;;;5035224;28;20171;-53
2022/07/20 09:31:33;;;;;;;13.32;12.02;;;25.10;55.90;;;;;;5035000;28;20580;-56
2022/07/20 09:34:00;;;;;;;12.45;11.30;;;25.10;55.90;;;;;;5035309;28;20176;-54
2022/07/20 09:36:30;;;;;;;12.40;11.30;;;25.10;55.90;;;;;;5035395;28;20180;-55
2022/07/20 09:39:05;;;;;;;12.75;11.40;;;25.10;55.90;;;;;;5034664;28;20560;-56
2022/07/20 09:41:31;;;;;;;12.65;11.05;;;25.10;55.90;;;;;;5035632;28;20167;-51
2022/07/20 09:43:58;;;;;;;12.57;11.45;;;25.10;55.90;;;;;;5034853;28;20295;-53
2022/07/20 09:46:32;;;;;;;15.55;11.55;;;25.10;56.60;;;;;;5034712;28;20248;-51
2022/07/20 09:48:59;;;;;;;13.00;11.70;;;25.10;56.00;;;;;;5035076;28;20641;-50
2022/07/20 09:51:27;;;;;;;13.57;12.18;;;25.10;55.90;;;;;;5035199;28;20176;-51
2022/07/20 09:53:56;;;;;;;12.55;11.25;;;25.20;56.10;;;;;;5034534;28;20176;-53
2022/07/20 09:56:22;;;;;;;12.75;11.55;;;25.10;55.90;;;;;;5035013;28;20251;-53
2022/07/20 09:58:49;;;;;;;12.15;10.95;;;25.20;55.90;;;;;;5034564;28;20184;-56
2022/07/20 10:01:25;;;;;;;12.38;11.20;;;25.20;55.90;;;;;;5034571;28;20195;-53
2022/07/20 10:03:52;;;;;;;11.90;10.82;;;25.20;56.50;;;;;;5034706;28;20199;-58
2022/07/20 10:06:19;;;;;;;12.35;10.98;;;25.10;55.80;;;;;;5035048;28;20184;-55
2022/07/20 10:08:45;;;;;;;14.48;10.75;;;25.10;55.80;;;;;;5034220;28;20591;-57
2022/07/20 10:11:11;;;;;;;12.90;11.63;;;25.20;55.80;;;;;;5034333;28;20235;-58
2022/07/20 10:13:38;;;;;;;12.70;10.90;;;25.20;55.80;;;;;;5033948;28;20225;-56
2022/07/20 10:16:16;;;;;;;12.43;10.70;;;25.20;55.80;;;;;;5017169;28;20199;-57
2022/07/20 10:18:45;;;;;;;11.00;10.00;;;25.20;55.80;;;;;;5034263;28;20172;-56
2022/07/20 10:21:46;;;;;;;11.50;10.30;;;25.20;55.80;;;;;;5000157;28;20702;-54
2022/07/20 10:24:31;;;;;;;12.35;10.75;;;25.10;55.80;;;;;;5034576;28;20218;-56
2022/07/20 10:27:02;;;;;;;11.63;10.20;;;25.20;55.80;;;;;;5034273;28;20212;-54
2022/07/20 10:29:30;;;;;;;12.15;10.02;;;25.20;55.80;;;;;;5034004;28;20175;-56
2022/07/20 10:32:08;;;;;;;11.13;10.02;;;25.20;56.40;;;;;;5033872;28;20180;-56
2022/07/20 10:34:39;;;;;;;11.13;10.05;;;25.20;55.80;;;;;;5034688;28;20254;-52
2022/07/20 10:37:26;;;;;;;10.75;9.75;;;25.20;55.80;;;;;;5034371;28;20180;-57
2022/07/20 10:39:52;;;;;;;11.55;9.95;;;25.20;55.70;;;;;;5033970;28;20175;-58
2022/07/20 10:42:24;;;;;;;10.85;9.80;;;25.10;55.70;;;;;;5033931;28;20176;-53
2022/07/20 10:44:50;;;;;;;14.10;10.50;;;25.20;55.80;;;;;;5033916;28;20218;-54
2022/07/20 10:47:39;;;;;;;11.57;10.15;;;25.30;55.80;;;;;;5016601;28;20548;-52
2022/07/20 10:50:05;;;;;;;10.45;9.45;;;25.30;55.80;;;;;;5033575;28;20539;-53
2022/07/20 10:52:32;;;;;;;11.35;9.23;;;25.30;55.80;;;;;;5123372;22;20248;-52
2022/07/20 10:54:58;;;;;;;10.60;9.55;;;25.30;55.80;;;;;;5052588;28;20312;-55
2022/07/20 10:57:24;;;;;;;11.10;10.00;;;25.40;55.80;;;;;;5053539;28;20207;-54
2022/07/20 11:00:03;;;;;;;11.00;9.90;;;25.40;55.80;;;;;;5052600;28;20171;-54
2022/07/20 11:02:32;;;;;;;11.45;10.25;;;25.40;55.80;;;;;;5054116;28;20528;-54
2022/07/20 11:04:57;;;;;;;11.98;9.88;;;25.40;55.80;;;;;;5053109;28;20249;-52
2022/07/20 11:07:31;;;;;;;10.75;9.52;;;25.40;55.80;;;;;;5053448;28;20628;-53
2022/07/20 11:09:57;;;;;;;10.52;9.52;;;25.40;55.90;;;;;;5053175;28;20217;-56
2022/07/20 11:12:29;;;;;;;11.20;10.13;;;25.30;55.90;;;;;;5053428;28;20640;-56
2022/07/20 11:14:55;;;;;;;10.48;9.48;;;25.30;55.90;;;;;;5052592;28;20557;-52
2022/07/20 11:17:21;;;;;;;11.45;10.00;;;25.30;56.00;;;;;;5051972;28;20640;-55
2022/07/20 11:19:47;;;;;;;11.35;9.63;;;25.40;56.10;;;;;;5052611;28;20241;-55
2022/07/20 11:22:12;;;;;;;11.43;9.70;;;25.40;56.10;;;;;;5052789;28;20675;-55
2022/07/20 11:24:38;;;;;;;10.65;9.45;;;25.40;56.10;;;;;;5050850;28;20221;-49
2022/07/20 11:27:17;;;;;;;12.10;10.38;;;25.40;56.00;;;;;;5052206;28;20624;-53
2022/07/20 11:29:47;;;;;;;10.55;9.45;;;25.40;56.00;;;;;;5053385;28;20206;-53
2022/07/20 11:32:13;;;;;;;10.15;9.18;;;25.40;56.00;;;;;;5052805;28;20171;-51
2022/07/20 11:34:48;;;;;;;11.30;9.43;;;25.50;56.00;;;;;;5052906;28;20651;-53
2022/07/20 11:37:16;;;;;;;12.07;9.02;;;25.50;56.00;;;;;;5053412;28;20175;-52
2022/07/20 11:39:41;;;;;;;10.15;9.23;;;25.50;56.00;;;;;;5052514;28;20698;-52
2022/07/20 11:42:14;;;;;;;9.80;8.80;;;25.50;56.00;;;;;;5052925;28;20179;-54
2022/07/20 11:44:41;;;;;;;10.57;9.57;;;25.50;56.00;;;;;;5052952;28;20203;-53
2022/07/20 11:47:06;;;;;;;11.93;9.25;;;25.50;56.00;;;;;;5052533;28;20240;-53
2022/07/20 11:49:32;;;;;;;12.52;9.63;;;25.50;55.90;;;;;;5052824;28;20183;-54
2022/07/20 11:51:59;;;;;;;9.98;8.98;;;25.50;55.90;;;;;;5052890;28;20183;-52
2022/07/20 11:54:29;;;;;;;10.80;9.68;;;25.50;55.90;;;;;;5052358;28;20285;-49
2022/07/20 11:56:54;;;;;;;10.70;9.70;;;25.50;56.00;;;;;;5052605;28;20221;-52
2022/07/20 11:59:20;;;;;;;10.50;9.40;;;25.60;56.10;;;;;;5052524;28;20179;-51
2022/07/20 12:01:47;;;;;;;10.05;8.63;;;25.50;56.00;;;;;;5052475;28;20225;-52
2022/07/20 12:04:14;;;;;;;9.45;8.55;;;25.50;56.00;;;;;;5051495;28;20241;-56
2022/07/20 12:06:40;;;;;;;10.18;9.02;;;25.60;55.90;;;;;;5051064;28;20193;-55
2022/07/20 12:09:05;;;;;;;9.52;8.63;;;25.60;55.90;;;;;;5052706;28;20250;-56
2022/07/20 12:11:35;;;;;;;10.98;9.07;;;25.60;55.90;;;;;;5052826;28;20175;-54
2022/07/20 12:14:00;;;;;;;9.57;8.57;;;25.60;55.80;;;;;;5051947;28;20175;-54
2022/07/20 12:16:36;;;;;;;11.77;8.23;;;25.60;55.70;;;;;;5052562;28;20651;-55
2022/07/20 12:19:03;;;;;;;10.88;9.05;;;25.60;55.80;;;;;;5051231;28;20528;-53
2022/07/20 12:21:28;;;;;;;9.45;8.45;;;25.60;55.80;;;;;;5052364;28;20570;-56
2022/07/20 12:23:54;;;;;;;9.25;8.35;;;25.60;55.80;;;;;;5034184;28;20202;-51
2022/07/20 12:26:23;;;;;;;8.85;7.97;;;25.60;55.70;;;;;;5052748;28;20193;-53
2022/07/20 12:28:49;;;;;;;10.18;8.70;;;25.60;55.70;;;;;;5052145;28;20167;-51
2022/07/20 12:31:19;;;;;;;8.63;7.72;;;25.60;55.60;;;;;;5052201;28;20519;-53
2022/07/20 12:34:13;;;;;;;9.50;8.60;;;25.60;55.60;;;;;;5052534;28;20202;-53
2022/07/20 12:36:45;;;;;;;9.30;8.35;;;25.70;55.80;;;;;;5053042;28;20649;-50
2022/07/20 12:39:15;;;;;;;9.35;8.38;;;25.70;55.80;;;;;;5056442;28;20186;-57
2022/07/20 12:41:41;;;;;;;8.95;8.15;;;25.70;55.80;;;;;;5056130;28;20167;-52